createdAt,value
2023-02-19T00:01:21.867Z,75.14
2023-02-19T00:03:57.047Z,74.95
2023-02-19T00:06:26.692Z,74.84
2023-02-19T00:08:53.667Z,74.86
2023-02-19T00:11:22.548Z,74.74
2023-02-19T00:13:52.846Z,75.57
2023-02-19T00:16:22.807Z,75.58
2023-02-19T00:18:50.045Z,76.08
2023-02-19T00:21:17.968Z,76.33
2023-02-19T00:23:52.619Z,76.92
2023-02-19T00:26:19.958Z,77.62
2023-02-19T00:28:50.402Z,78.28
2023-02-19T00:31:25.960Z,78.21
2023-02-19T00:33:55.788Z,78.82
2023-02-19T00:36:24.060Z,79.03
2023-02-19T00:38:51.410Z,78.90
2023-02-19T00:41:19.701Z,78.32
2023-02-19T00:43:51.439Z,78.31
2023-02-19T00:46:20.472Z,78.80
2023-02-19T00:48:47.808Z,78.57
2023-02-19T00:51:15.573Z,78.95
2023-02-19T00:53:43.466Z,79.09
2023-02-19T00:56:10.987Z,79.22
2023-02-19T00:58:38.476Z,79.53
2023-02-19T01:01:06.691Z,79.74
2023-02-19T01:03:35.188Z,79.38
2023-02-19T01:06:03.879Z,79.23
2023-02-19T01:08:31.419Z,78.96
2023-02-19T01:11:01.663Z,79.07
2023-02-19T01:13:29.428Z,78.91
2023-02-19T01:16:09.654Z,79.32
2023-02-19T01:18:36.938Z,79.26
2023-02-19T01:21:09.754Z,78.94
2023-02-19T01:23:37.300Z,78.96
2023-02-19T01:26:09.551Z,79.20
2023-02-19T01:28:36.495Z,79.29
2023-02-19T01:31:05.261Z,79.32
2023-02-19T01:33:33.523Z,79.59
2023-02-19T01:36:03.523Z,79.77
2023-02-19T01:38:30.321Z,79.90
2023-02-19T01:41:03.141Z,80.51
2023-02-19T01:43:31.653Z,80.65
2023-02-19T01:45:58.669Z,80.41
2023-02-19T01:48:33.996Z,80.20
2023-02-19T01:51:09.635Z,80.51
2023-02-19T01:53:40.098Z,81.21
2023-02-19T01:56:08.571Z,80.74
2023-02-19T01:58:37.472Z,80.50
2023-02-19T02:01:06.885Z,80.84
2023-02-19T02:03:35.577Z,80.77
2023-02-19T02:06:16.004Z,81.32
2023-02-19T02:09:01.290Z,81.77
2023-02-19T02:11:29.329Z,82.16
2023-02-19T02:13:57.033Z,82.15
2023-02-19T02:16:30.414Z,81.26
2023-02-19T02:19:22.897Z,81.30
2023-02-19T02:21:55.510Z,81.02
2023-02-19T02:24:50.256Z,80.77
2023-02-19T02:27:39.736Z,81.28
2023-02-19T02:30:22.218Z,81.98
2023-02-19T02:33:23.434Z,82.05
2023-02-19T02:35:59.913Z,82.38
2023-02-19T02:38:31.884Z,82.29
2023-02-19T02:40:59.074Z,82.68
2023-02-19T02:43:26.274Z,82.52
2023-02-19T02:45:54.071Z,82.73
2023-02-19T02:48:37.031Z,82.66
2023-02-19T02:51:13.156Z,83.12
2023-02-19T02:54:16.051Z,83.35
2023-02-19T02:56:46.636Z,83.64
2023-02-19T02:59:18.704Z,83.86
2023-02-19T03:02:10.363Z,84.29
2023-02-19T03:05:11.232Z,83.84
2023-02-19T03:07:44.013Z,83.31
2023-02-19T03:10:15.828Z,82.71
2023-02-19T03:13:03.843Z,82.21
2023-02-19T03:15:55.998Z,82.01
2023-02-19T03:18:41.848Z,81.76
2023-02-19T03:21:10.383Z,81.70
2023-02-19T03:23:57.735Z,81.96
2023-02-19T03:26:26.343Z,81.72
2023-02-19T03:29:14.141Z,82.33
2023-02-19T03:31:44.589Z,82.25
2023-02-19T03:34:21.285Z,82.63
2023-02-19T03:36:54.191Z,82.90
2023-02-19T03:39:23.893Z,83.10
2023-02-19T03:42:00.239Z,83.61
2023-02-19T03:44:48.957Z,83.66
2023-02-19T03:47:23.883Z,83.83
2023-02-19T03:50:19.732Z,84.11
2023-02-19T03:53:06.028Z,84.07
2023-02-19T03:55:46.346Z,84.50
2023-02-19T03:58:32.060Z,85.14
2023-02-19T04:01:09.338Z,85.42
2023-02-19T04:03:52.591Z,85.65
2023-02-19T04:06:32.179Z,85.59
2023-02-19T04:09:02.988Z,85.82
2023-02-19T04:11:32.095Z,86.20
2023-02-19T04:14:23.931Z,86.40
2023-02-19T04:16:56.773Z,86.62
2023-02-19T04:19:26.629Z,86.58
2023-02-19T04:21:54.998Z,86.46
2023-02-19T04:24:46.725Z,86.07
2023-02-19T04:27:14.254Z,86.07
2023-02-19T04:29:41.261Z,85.60
2023-02-19T04:32:11.183Z,85.95
2023-02-19T04:34:38.003Z,86.06
2023-02-19T04:37:05.084Z,86.14
2023-02-19T04:39:32.156Z,86.14
2023-02-19T04:41:59.073Z,86.24
2023-02-19T04:44:27.016Z,87.01
2023-02-19T04:46:53.870Z,86.75
2023-02-19T04:49:20.650Z,86.92
2023-02-19T04:51:47.634Z,87.47
2023-02-19T04:54:14.376Z,87.57
2023-02-19T04:56:41.352Z,87.38
2023-02-19T04:59:08.320Z,87.67
2023-02-19T05:01:35.352Z,86.65
2023-02-19T05:04:02.391Z,85.66
2023-02-19T05:06:29.186Z,85.04
2023-02-19T05:08:56.036Z,83.57
2023-02-19T05:11:23.851Z,82.53
2023-02-19T05:13:50.922Z,81.57
2023-02-19T05:16:18.330Z,80.00
2023-02-19T05:18:46.570Z,79.31
2023-02-19T05:21:14.349Z,78.86
2023-02-19T05:23:41.869Z,78.59
2023-02-19T05:26:12.659Z,78.80
2023-02-19T05:28:39.441Z,78.37
2023-02-19T05:31:09.030Z,77.66
2023-02-19T05:33:37.154Z,78.06
2023-02-19T05:36:13.059Z,77.60
2023-02-19T05:38:41.375Z,77.83
2023-02-19T05:41:13.170Z,77.66
2023-02-19T05:43:42.038Z,78.03
2023-02-19T05:46:10.478Z,77.85
2023-02-19T05:48:37.627Z,78.17
2023-02-19T05:51:06.374Z,77.83
2023-02-19T05:53:33.812Z,77.95
2023-02-19T05:56:00.734Z,77.71
2023-02-19T05:58:28.256Z,77.93
2023-02-19T06:00:56.133Z,77.58
2023-02-19T06:03:23.458Z,78.05
2023-02-19T06:05:50.357Z,78.10
2023-02-19T06:08:17.173Z,77.63
2023-02-19T06:10:44.109Z,77.45
2023-02-19T06:13:11.575Z,77.04
2023-02-19T06:15:38.684Z,76.38
2023-02-19T06:18:05.724Z,76.66
2023-02-19T06:20:33.202Z,76.33
2023-02-19T06:23:00.117Z,74.67
2023-02-19T06:25:26.858Z,73.29
2023-02-19T06:27:53.913Z,73.17
2023-02-19T06:30:20.945Z,72.87
2023-02-19T06:32:52.395Z,72.27
2023-02-19T06:35:19.869Z,72.44
2023-02-19T06:37:50.851Z,72.92
2023-02-19T06:40:18.976Z,72.44
2023-02-19T06:42:45.853Z,71.76
2023-02-19T06:45:12.830Z,72.30
2023-02-19T06:47:39.612Z,71.90
2023-02-19T06:50:06.721Z,71.74
2023-02-19T06:52:33.531Z,71.83
2023-02-19T06:55:00.312Z,72.23
2023-02-19T06:57:27.253Z,71.66
2023-02-19T06:59:54.031Z,71.79
2023-02-19T07:02:20.793Z,71.02
2023-02-19T07:04:47.656Z,71.11
2023-02-19T07:07:14.432Z,71.78
2023-02-19T07:09:41.270Z,71.27
2023-02-19T07:12:08.396Z,70.72
2023-02-19T07:14:35.257Z,71.17
2023-02-19T07:17:02.202Z,71.02
2023-02-19T07:19:29.026Z,70.41
2023-02-19T07:21:55.998Z,70.17
2023-02-19T07:24:22.897Z,70.21
2023-02-19T07:26:50.341Z,69.93
2023-02-19T07:29:17.444Z,69.96
2023-02-19T07:31:44.484Z,69.30
2023-02-19T07:34:11.550Z,69.55
2023-02-19T07:36:38.510Z,68.68
2023-02-19T07:39:05.466Z,69.35
2023-02-19T07:41:32.892Z,69.55
2023-02-19T07:43:59.828Z,69.22
2023-02-19T07:46:27.341Z,69.31
2023-02-19T07:48:54.189Z,69.08
2023-02-19T07:51:21.085Z,69.40
2023-02-19T07:53:52.682Z,68.64
2023-02-19T07:56:20.191Z,69.12
2023-02-19T07:58:47.169Z,69.13
2023-02-19T08:01:40.179Z,69.42
2023-02-19T08:04:07.293Z,69.02
2023-02-19T08:06:34.202Z,67.82
2023-02-19T08:09:00.958Z,68.27
2023-02-19T08:11:46.293Z,68.46
2023-02-19T08:14:13.126Z,67.79
2023-02-19T08:16:43.292Z,67.94
2023-02-19T08:19:10.565Z,67.36
2023-02-19T08:21:37.418Z,68.06
2023-02-19T08:24:04.547Z,67.46
2023-02-19T08:26:32.620Z,67.14
2023-02-19T08:28:59.372Z,67.48
2023-02-19T08:31:27.257Z,66.39
2023-02-19T08:33:55.168Z,66.92
2023-02-19T08:36:22.130Z,67.30
2023-02-19T08:38:49.069Z,66.90
2023-02-19T08:41:16.324Z,65.96
2023-02-19T08:43:43.539Z,65.99
2023-02-19T08:46:12.623Z,65.61
2023-02-19T08:48:40.823Z,65.68
2023-02-19T08:51:10.293Z,65.37
2023-02-19T08:53:38.913Z,64.22
2023-02-19T08:56:11.716Z,64.62
2023-02-19T08:58:39.129Z,63.62
2023-02-19T09:01:15.357Z,63.73
2023-02-19T09:03:43.143Z,63.41
2023-02-19T09:06:19.252Z,63.53
2023-02-19T09:08:46.276Z,62.29
2023-02-19T09:11:14.046Z,61.73
2023-02-19T09:13:41.075Z,62.40
2023-02-19T09:16:08.462Z,62.21
2023-02-19T09:18:35.715Z,61.71
2023-02-19T09:21:04.993Z,60.95
2023-02-19T09:23:36.258Z,60.64
2023-02-19T09:26:06.849Z,60.97
2023-02-19T09:28:33.939Z,61.57
2023-02-19T09:31:09.004Z,60.85
2023-02-19T09:33:36.230Z,60.97
2023-02-19T09:36:04.154Z,60.44
2023-02-19T09:38:31.142Z,60.01
2023-02-19T09:40:59.203Z,59.52
2023-02-19T09:43:29.491Z,59.68
2023-02-19T09:46:23.285Z,59.82
2023-02-19T09:48:51.680Z,59.96
2023-02-19T09:51:18.841Z,60.75
2023-02-19T09:53:49.946Z,60.43
2023-02-19T09:56:18.036Z,59.58
2023-02-19T09:58:56.759Z,59.54
2023-02-19T10:01:28.230Z,60.41
2023-02-19T10:03:54.890Z,60.40
2023-02-19T10:06:24.315Z,60.61
2023-02-19T10:09:11.255Z,59.70
2023-02-19T10:11:38.161Z,59.79
2023-02-19T10:14:09.402Z,59.78
2023-02-19T10:16:40.869Z,59.04
2023-02-19T10:19:13.981Z,59.98
2023-02-19T10:21:41.899Z,58.96
2023-02-19T10:24:16.704Z,59.97
2023-02-19T10:26:43.747Z,59.38
2023-02-19T10:29:10.602Z,59.50
2023-02-19T10:31:37.651Z,58.18
2023-02-19T10:34:06.588Z,59.07
2023-02-19T10:36:39.192Z,58.05
2023-02-19T10:39:35.287Z,58.65
2023-02-19T10:42:03.135Z,58.08
2023-02-19T10:44:38.804Z,56.90
2023-02-19T10:47:06.269Z,56.79
2023-02-19T10:49:37.504Z,56.23
2023-02-19T10:52:27.727Z,55.92
2023-02-19T10:54:57.900Z,56.66
2023-02-19T10:57:33.133Z,55.49
2023-02-19T11:00:22.871Z,56.10
2023-02-19T11:02:50.329Z,56.44
2023-02-19T11:05:20.888Z,56.81
2023-02-19T11:07:56.587Z,55.85
2023-02-19T11:10:27.034Z,55.67
2023-02-19T11:13:04.219Z,54.33
2023-02-19T11:15:35.940Z,54.79
2023-02-19T11:18:28.929Z,54.11
2023-02-19T11:21:05.460Z,54.84
2023-02-19T11:23:45.508Z,54.85
2023-02-19T11:26:28.022Z,54.61
2023-02-19T11:29:01.014Z,54.70
2023-02-19T11:31:35.371Z,53.66
2023-02-19T11:34:14.511Z,53.75
2023-02-19T11:36:42.798Z,54.28
2023-02-19T11:39:15.934Z,54.49
2023-02-19T11:41:54.858Z,54.73
2023-02-19T11:44:51.114Z,53.40
2023-02-19T11:47:51.982Z,53.30
2023-02-19T11:50:39.374Z,53.92
2023-02-19T11:53:41.639Z,53.80
2023-02-19T11:56:08.571Z,53.20
2023-02-19T11:59:00.881Z,52.72
2023-02-19T12:01:50.286Z,52.40
2023-02-19T12:04:26.236Z,52.76
2023-02-19T12:07:16.480Z,52.42
2023-02-19T12:10:05.666Z,52.62
2023-02-19T12:12:47.583Z,52.27
2023-02-19T12:15:25.253Z,52.34
2023-02-19T12:18:27.822Z,52.56
2023-02-19T12:21:14.062Z,52.87
2023-02-19T12:24:08.612Z,51.86
2023-02-19T12:27:16.872Z,51.67
2023-02-19T12:30:01.673Z,51.99
2023-02-19T12:32:37.693Z,51.32
2023-02-19T12:35:41.861Z,52.05
2023-02-19T12:38:11.881Z,52.57
2023-02-19T12:40:50.660Z,52.52
2023-02-19T12:43:20.700Z,52.21
2023-02-19T12:46:01.841Z,51.15
2023-02-19T12:48:46.389Z,51.75
2023-02-19T12:51:33.104Z,51.85
2023-02-19T12:54:21.880Z,51.72
2023-02-19T12:56:54.661Z,51.42
2023-02-19T12:59:43.311Z,51.67
2023-02-19T13:02:21.993Z,51.10
2023-02-19T13:04:51.885Z,50.84
2023-02-19T13:07:31.092Z,50.37
2023-02-19T13:10:06.555Z,50.65
2023-02-19T13:12:38.477Z,50.97
2023-02-19T13:15:18.899Z,51.52
2023-02-19T13:17:50.518Z,51.30
2023-02-19T13:20:20.454Z,52.04
2023-02-19T13:23:46.009Z,52.00
2023-02-19T13:26:38.885Z,51.48
2023-02-19T13:29:36.310Z,52.16
2023-02-19T13:32:40.555Z,52.07
2023-02-19T13:35:25.635Z,52.77
2023-02-19T13:37:54.697Z,52.45
2023-02-19T13:40:31.458Z,52.14
2023-02-19T13:43:01.924Z,52.44
2023-02-19T13:45:34.679Z,52.24
2023-02-19T13:48:26.458Z,51.97
2023-02-19T13:51:11.840Z,52.44
2023-02-19T13:54:00.128Z,51.94
2023-02-19T13:56:29.895Z,52.41
2023-02-19T13:59:18.248Z,52.31
2023-02-19T14:01:54.022Z,52.62
2023-02-19T14:04:55.533Z,52.92
2023-02-19T14:07:35.015Z,52.89
2023-02-19T14:10:03.877Z,52.82
2023-02-19T14:12:36.152Z,52.66
2023-02-19T14:15:36.992Z,53.14
2023-02-19T14:18:23.910Z,52.54
2023-02-19T14:21:07.301Z,52.65
2023-02-19T14:23:34.156Z,53.88
2023-02-19T14:26:03.704Z,53.21
2023-02-19T14:28:45.577Z,53.44
2023-02-19T14:31:19.463Z,54.44
2023-02-19T14:34:09.265Z,54.56
2023-02-19T14:36:44.340Z,54.09
2023-02-19T14:39:23.032Z,53.61
2023-02-19T14:41:59.337Z,53.78
2023-02-19T14:44:30.999Z,53.57
2023-02-19T14:47:06.678Z,53.85
2023-02-19T14:49:46.289Z,53.78
2023-02-19T14:52:28.529Z,53.69
2023-02-19T14:55:00.831Z,53.89
2023-02-19T14:57:30.559Z,53.72
2023-02-19T15:00:19.945Z,54.15
2023-02-19T15:02:46.816Z,54.32
2023-02-19T15:05:18.600Z,54.50
2023-02-19T15:07:45.802Z,54.56
2023-02-19T15:10:14.593Z,55.02
2023-02-19T15:12:49.614Z,55.45
2023-02-19T15:15:24.675Z,56.19
2023-02-19T15:17:53.856Z,56.63
2023-02-19T15:20:25.639Z,56.75
2023-02-19T15:22:53.786Z,56.98
2023-02-19T15:25:23.353Z,57.40
2023-02-19T15:27:50.490Z,57.73
2023-02-19T15:30:27.645Z,57.91
2023-02-19T15:32:56.557Z,58.12
2023-02-19T15:35:25.274Z,58.29
2023-02-19T15:37:55.174Z,58.69
2023-02-19T15:40:32.485Z,58.42
2023-02-19T15:43:24.746Z,58.74
2023-02-19T15:45:56.189Z,59.05
2023-02-19T15:48:27.462Z,59.19
2023-02-19T15:51:08.095Z,59.16
2023-02-19T15:53:41.356Z,59.03
2023-02-19T15:56:29.418Z,59.32
2023-02-19T15:59:07.072Z,59.72
2023-02-19T16:01:39.090Z,60.01
2023-02-19T16:04:15.806Z,60.33
2023-02-19T16:07:02.793Z,60.76
2023-02-19T16:09:37.415Z,61.15
2023-02-19T16:12:22.257Z,61.25
2023-02-19T16:14:49.422Z,61.66
2023-02-19T16:17:21.383Z,61.74
2023-02-19T16:20:02.436Z,61.85
2023-02-19T16:25:37.213Z,62.42
2023-02-19T16:28:24.736Z,62.58
2023-02-19T16:31:10.085Z,62.72
2023-02-19T16:33:46.503Z,63.02
2023-02-19T16:36:22.556Z,63.41
2023-02-19T16:39:08.038Z,63.56
2023-02-19T16:42:04.238Z,63.69
2023-02-19T16:44:35.852Z,63.73
2023-02-19T16:47:06.385Z,63.90
2023-02-19T16:49:33.822Z,64.02
2023-02-19T16:52:04.160Z,64.03
2023-02-19T16:54:31.507Z,64.28
2023-02-19T16:56:58.349Z,64.61
2023-02-19T16:59:25.187Z,64.55
2023-02-19T17:01:52.112Z,64.82
2023-02-19T17:04:19.113Z,64.78
2023-02-19T17:06:47.246Z,64.87
2023-02-19T17:09:14.070Z,65.02
2023-02-19T17:11:40.856Z,65.17
2023-02-19T17:14:08.346Z,65.50
2023-02-19T17:16:40.474Z,65.66
2023-02-19T17:19:14.468Z,65.56
2023-02-19T17:21:41.595Z,65.87
2023-02-19T17:24:08.491Z,66.42
2023-02-19T17:26:35.355Z,66.68
2023-02-19T17:29:05.101Z,66.96
2023-02-19T17:31:34.934Z,67.46
2023-02-19T17:34:09.924Z,67.47
2023-02-19T17:39:32.746Z,68.82
2023-02-19T17:41:59.591Z,68.93
2023-02-19T17:44:26.343Z,69.37
2023-02-19T17:46:53.307Z,69.77
2023-02-19T17:49:20.180Z,69.90
2023-02-19T17:51:47.033Z,69.99
2023-02-19T17:54:13.846Z,71.10
2023-02-19T17:56:43.385Z,71.90
2023-02-19T17:59:10.948Z,71.80
2023-02-19T18:01:49.078Z,71.85
2023-02-19T18:04:16.203Z,71.92
2023-02-19T18:06:43.374Z,72.43
2023-02-19T18:11:56.010Z,72.62
2023-02-19T18:14:22.831Z,72.75
2023-02-19T18:16:50.502Z,72.66
2023-02-19T18:19:18.857Z,72.70
2023-02-19T18:21:45.595Z,72.99
2023-02-19T18:24:12.413Z,72.54
2023-02-19T18:26:39.276Z,72.14
2023-02-19T18:29:06.072Z,72.00
2023-02-19T18:31:33.769Z,71.87
2023-02-19T18:34:00.644Z,71.75
2023-02-19T18:36:27.600Z,72.02
2023-02-19T18:38:54.391Z,71.85
2023-02-19T18:41:21.586Z,71.99
2023-02-19T18:43:48.619Z,72.10
2023-02-19T18:46:15.601Z,72.30
2023-02-19T18:48:45.923Z,72.30
2023-02-19T18:51:13.739Z,72.29
2023-02-19T18:53:43.514Z,72.33
2023-02-19T18:56:10.358Z,72.50
2023-02-19T18:58:37.206Z,72.17
2023-02-19T19:01:04.193Z,72.37
2023-02-19T19:03:31.881Z,72.35
2023-02-19T19:05:58.741Z,72.43
2023-02-19T19:08:26.186Z,72.23
2023-02-19T19:10:52.941Z,71.97
2023-02-19T19:13:19.840Z,71.83
2023-02-19T19:15:50.973Z,71.84
2023-02-19T19:18:18.453Z,72.16
2023-02-19T19:20:45.378Z,72.46
2023-02-19T19:23:12.848Z,72.62
2023-02-19T19:25:39.727Z,72.84
2023-02-19T19:28:06.508Z,72.95
2023-02-19T19:30:33.885Z,73.68
2023-02-19T19:33:01.756Z,74.64
2023-02-19T19:35:28.729Z,75.91
2023-02-19T19:37:55.572Z,76.37
2023-02-19T19:40:22.475Z,77.88
2023-02-19T19:42:52.442Z,78.40
2023-02-19T19:45:19.594Z,80.35
2023-02-19T19:47:52.970Z,79.74
2023-02-19T19:50:20.158Z,79.60
2023-02-19T19:52:46.948Z,80.63
2023-02-19T19:55:13.866Z,80.47
2023-02-19T19:57:41.098Z,82.34
2023-02-19T20:00:09.458Z,82.24
2023-02-19T20:02:39.218Z,82.56
2023-02-19T20:05:06.921Z,82.51
2023-02-19T20:07:33.944Z,83.19
2023-02-19T20:10:00.817Z,83.49
2023-02-19T20:12:27.782Z,83.79
2023-02-19T20:14:54.648Z,82.19
2023-02-19T20:17:21.717Z,79.96
2023-02-19T20:19:48.588Z,78.56
2023-02-19T20:22:15.449Z,78.27
2023-02-19T20:24:42.340Z,78.16
2023-02-19T20:27:09.158Z,77.74
2023-02-19T20:29:36.308Z,76.97
2023-02-19T20:32:03.837Z,76.92
2023-02-19T20:34:31.043Z,77.05
2023-02-19T20:36:58.020Z,77.12
2023-02-19T20:39:28.899Z,77.76
2023-02-19T20:41:56.946Z,77.49
2023-02-19T20:44:24.616Z,77.16
2023-02-19T20:46:52.578Z,77.24
2023-02-19T20:49:22.320Z,76.97
2023-02-19T20:51:53.239Z,77.30
2023-02-19T20:54:22.639Z,75.76
2023-02-19T20:56:52.475Z,75.91
2023-02-19T20:59:21.673Z,74.77
2023-02-19T21:01:49.097Z,74.36
2023-02-19T21:04:17.712Z,74.56
2023-02-19T21:06:45.169Z,74.36
2023-02-19T21:09:12.733Z,74.79
2023-02-19T21:11:39.693Z,74.02
2023-02-19T21:14:06.495Z,74.69
2023-02-19T21:16:33.750Z,74.84
2023-02-19T21:19:00.644Z,74.54
2023-02-19T21:21:28.024Z,74.93
2023-02-19T21:23:56.731Z,74.96
2023-02-19T21:26:24.285Z,74.69
2023-02-19T21:28:52.097Z,75.62
2023-02-19T21:31:19.792Z,76.46
2023-02-19T21:33:47.179Z,76.61
2023-02-19T21:36:14.357Z,76.53
2023-02-19T21:38:41.209Z,75.88
2023-02-19T21:41:08.051Z,75.16
2023-02-19T21:43:34.891Z,74.74
2023-02-19T21:46:01.849Z,74.78
2023-02-19T21:48:28.819Z,73.83
2023-02-19T21:50:55.702Z,73.45
2023-02-19T21:53:22.449Z,72.16
2023-02-19T21:55:58.334Z,72.21
2023-02-19T21:58:26.276Z,72.12
2023-02-19T22:00:54.150Z,71.97
2023-02-19T22:03:21.314Z,72.24
2023-02-19T22:05:48.118Z,71.85
2023-02-19T22:08:17.378Z,72.20
2023-02-19T22:10:44.636Z,71.05
2023-02-19T22:13:11.591Z,71.13
2023-02-19T22:15:38.379Z,70.74
2023-02-19T22:18:05.605Z,70.90
2023-02-19T22:20:32.441Z,70.35
2023-02-19T22:22:59.217Z,70.28
2023-02-19T22:25:26.007Z,70.55
2023-02-19T22:27:52.822Z,71.20
2023-02-19T22:30:19.809Z,71.54
2023-02-19T22:32:46.744Z,71.20
2023-02-19T22:35:15.665Z,70.93
2023-02-19T22:37:42.721Z,70.99
2023-02-19T22:40:10.007Z,70.88
2023-02-19T22:42:37.946Z,70.94
2023-02-19T22:45:05.953Z,71.06
2023-02-19T22:47:32.702Z,70.75
2023-02-19T22:49:59.486Z,70.72
2023-02-19T22:52:28.172Z,71.05
2023-02-19T22:54:55.825Z,70.96
2023-02-19T22:57:22.947Z,70.99
2023-02-19T22:59:49.790Z,71.03
2023-02-19T23:02:16.628Z,71.56
2023-02-19T23:04:43.544Z,71.19
2023-02-19T23:07:10.965Z,71.70
2023-02-19T23:09:37.761Z,72.09
2023-02-19T23:12:08.285Z,71.77
2023-02-19T23:14:35.261Z,72.19
2023-02-19T23:17:02.508Z,72.16
2023-02-19T23:19:29.616Z,72.02
2023-02-19T23:21:56.820Z,72.63
2023-02-19T23:24:23.744Z,72.72
2023-02-19T23:26:53.001Z,72.71
2023-02-19T23:29:25.185Z,72.70
2023-02-19T23:31:52.909Z,72.48
2023-02-19T23:34:20.054Z,73.04
2023-02-19T23:36:49.342Z,73.09
2023-02-19T23:39:18.544Z,72.82
2023-02-19T23:41:48.482Z,72.93
2023-02-19T23:44:16.183Z,72.92
2023-02-19T23:46:43.450Z,73.17
2023-02-19T23:49:10.610Z,73.69
2023-02-19T23:51:37.836Z,73.49
2023-02-19T23:54:05.054Z,73.90
2023-02-19T23:56:32.044Z,73.73
2023-02-19T23:58:59.290Z,74.01
